createdAt,value
2018-05-18T00:00:29.955Z,1009.48
2018-05-18T00:01:29.906Z,1009.46
2018-05-18T00:02:29.858Z,1009.47
2018-05-18T00:03:29.830Z,1009.46
2018-05-18T00:04:29.761Z,1009.46
2018-05-18T00:05:29.709Z,1009.43
2018-05-18T00:06:29.664Z,1009.44
2018-05-18T00:07:29.608Z,1009.44
2018-05-18T00:08:29.588Z,1009.45
2018-05-18T00:09:29.512Z,1009.45
2018-05-18T00:10:29.463Z,1009.43
2018-05-18T00:11:29.414Z,1009.43
2018-05-18T00:12:29.365Z,1009.45
2018-05-18T00:13:29.350Z,1009.46
2018-05-18T00:14:29.267Z,1009.45
2018-05-18T00:15:29.221Z,1009.43
2018-05-18T00:16:29.170Z,1009.43
2018-05-18T00:17:29.125Z,1009.44
2018-05-18T00:18:29.097Z,1009.43
2018-05-18T00:19:29.034Z,1009.46
2018-05-18T00:20:28.976Z,1009.44
2018-05-18T00:21:28.926Z,1009.52
2018-05-18T00:22:28.874Z,1009.46
2018-05-18T00:23:28.852Z,1009.45
2018-05-18T00:24:28.776Z,1009.50
2018-05-18T00:25:28.731Z,1009.48
2018-05-18T00:26:28.679Z,1009.47
2018-05-18T00:27:28.634Z,1009.43
2018-05-18T00:28:28.606Z,1009.44
2018-05-18T00:29:28.535Z,1009.40
2018-05-18T00:30:28.489Z,1009.45
2018-05-18T00:31:28.434Z,1009.43
2018-05-18T00:32:28.388Z,1009.46
2018-05-18T00:33:28.369Z,1009.43
2018-05-18T00:34:28.287Z,1009.41
2018-05-18T00:35:28.236Z,1009.41
2018-05-18T00:36:28.190Z,1009.40
2018-05-18T00:37:28.135Z,1009.40
2018-05-18T00:38:28.112Z,1009.37
2018-05-18T00:39:28.045Z,1009.40
2018-05-18T00:40:27.989Z,1009.40
2018-05-18T00:41:27.944Z,1009.37
2018-05-18T00:42:27.895Z,1009.35
2018-05-18T00:43:27.866Z,1009.33
2018-05-18T00:44:27.799Z,1009.33
2018-05-18T00:45:27.745Z,1009.33
2018-05-18T00:46:27.694Z,1009.37
2018-05-18T00:47:27.649Z,1009.31
2018-05-18T00:48:27.621Z,1009.36
2018-05-18T00:49:27.551Z,1009.36
2018-05-18T00:50:27.498Z,1009.33
2018-05-18T00:51:27.448Z,1009.31
2018-05-18T00:52:27.402Z,1009.33
2018-05-18T00:53:27.373Z,1009.34
2018-05-18T00:54:27.302Z,1009.31
2018-05-18T00:55:27.250Z,1009.34
2018-05-18T00:56:27.203Z,1009.35
2018-05-18T00:57:27.157Z,1009.33
2018-05-18T00:58:27.129Z,1009.34
2018-05-18T00:59:27.053Z,1009.31
2018-05-18T01:00:27.004Z,1009.32
2018-05-18T01:01:26.955Z,1009.29
2018-05-18T01:02:26.909Z,1009.30
2018-05-18T01:03:26.902Z,1009.26
2018-05-18T01:04:26.866Z,1009.28
2018-05-18T01:05:26.760Z,1009.24
2018-05-18T01:06:26.711Z,1009.27
2018-05-18T01:07:26.662Z,1009.24
2018-05-18T01:08:26.612Z,1009.22
2018-05-18T01:09:26.584Z,1009.24
2018-05-18T01:10:26.511Z,1009.22
2018-05-18T01:11:26.466Z,1009.23
2018-05-18T01:12:26.416Z,1009.22
2018-05-18T01:13:26.363Z,1009.22
2018-05-18T01:14:26.341Z,1009.19
2018-05-18T01:15:26.268Z,1009.19
2018-05-18T01:16:26.222Z,1009.16
2018-05-18T01:17:26.176Z,1009.16
2018-05-18T01:18:26.124Z,1009.17
2018-05-18T01:19:26.101Z,1009.20
2018-05-18T01:20:26.026Z,1009.20
2018-05-18T01:21:25.975Z,1009.24
2018-05-18T01:22:25.929Z,1009.19
2018-05-18T01:23:25.875Z,1009.19
2018-05-18T01:24:25.853Z,1009.22
2018-05-18T01:25:25.779Z,1009.17
2018-05-18T01:26:25.726Z,1009.18
2018-05-18T01:27:25.681Z,1009.19
2018-05-18T01:28:25.629Z,1009.19
2018-05-18T01:29:25.623Z,1009.12
2018-05-18T01:30:25.534Z,1009.11
2018-05-18T01:31:25.481Z,1009.17
2018-05-18T01:32:25.437Z,1009.16
2018-05-18T01:33:25.387Z,1009.14
2018-05-18T01:34:25.362Z,1009.11
2018-05-18T01:35:25.285Z,1009.15
2018-05-18T01:36:25.238Z,1009.13
2018-05-18T01:37:25.192Z,1009.12
2018-05-18T01:38:25.143Z,1009.12
2018-05-18T01:39:25.112Z,1009.12
2018-05-18T01:40:25.041Z,1009.10
2018-05-18T01:41:24.995Z,1009.10
2018-05-18T01:42:24.942Z,1009.10
2018-05-18T01:43:24.892Z,1009.08
2018-05-18T01:44:24.865Z,1009.09
2018-05-18T01:45:24.798Z,1009.09
2018-05-18T01:46:24.746Z,1009.11
2018-05-18T01:47:24.696Z,1009.13
2018-05-18T01:48:24.647Z,1009.15
2018-05-18T01:49:24.625Z,1009.17
2018-05-18T01:50:24.550Z,1009.15
2018-05-18T01:51:24.498Z,1009.16
2018-05-18T01:52:24.451Z,1009.17
2018-05-18T01:53:24.403Z,1009.14
2018-05-18T01:54:24.376Z,1009.17
2018-05-18T01:55:24.304Z,1009.14
2018-05-18T01:56:24.251Z,1009.10
2018-05-18T01:57:24.207Z,1009.17
2018-05-18T01:58:24.157Z,1009.14
2018-05-18T01:59:24.131Z,1009.15
2018-05-18T02:00:24.058Z,1009.13
2018-05-18T02:01:24.010Z,1009.18
2018-05-18T02:02:23.960Z,1009.20
2018-05-18T02:03:23.911Z,1009.17
2018-05-18T02:04:23.884Z,1009.20
2018-05-18T02:05:23.814Z,1009.19
2018-05-18T02:06:23.766Z,1009.21
2018-05-18T02:07:23.712Z,1009.20
2018-05-18T02:08:23.667Z,1009.19
2018-05-18T02:09:23.640Z,1009.20
2018-05-18T02:10:23.569Z,1009.22
2018-05-18T02:11:23.517Z,1009.20
2018-05-18T02:12:23.472Z,1009.20
2018-05-18T02:13:23.419Z,1009.21
2018-05-18T02:14:23.391Z,1009.23
2018-05-18T02:15:23.329Z,1009.23
2018-05-18T02:16:23.274Z,1009.23
2018-05-18T02:17:23.226Z,1009.28
2018-05-18T02:18:23.173Z,1009.24
2018-05-18T02:19:23.148Z,1009.22
2018-05-18T02:20:23.074Z,1009.24
2018-05-18T02:21:23.025Z,1009.18
2018-05-18T02:22:22.976Z,1009.21
2018-05-18T02:23:22.929Z,1009.22
2018-05-18T02:24:22.901Z,1009.23
2018-05-18T02:25:22.829Z,1009.24
2018-05-18T02:26:22.778Z,1009.22
2018-05-18T02:27:22.732Z,1009.21
2018-05-18T02:28:22.683Z,1009.21
2018-05-18T02:29:22.659Z,1009.21
2018-05-18T02:30:22.586Z,1009.19
2018-05-18T02:31:22.536Z,1009.15
2018-05-18T02:32:22.487Z,1009.12
2018-05-18T02:33:22.442Z,1009.15
2018-05-18T02:34:22.410Z,1009.11
2018-05-18T02:35:22.344Z,1009.13
2018-05-18T02:36:22.292Z,1009.06
2018-05-18T02:37:22.242Z,1009.10
2018-05-18T02:38:22.193Z,1009.10
2018-05-18T02:39:22.167Z,1009.09
2018-05-18T02:40:22.093Z,1009.07
2018-05-18T02:41:22.040Z,1009.12
2018-05-18T02:42:21.991Z,1009.11
2018-05-18T02:43:21.945Z,1009.15
2018-05-18T02:44:21.919Z,1009.14
2018-05-18T02:45:21.844Z,1009.15
2018-05-18T02:46:21.796Z,1009.18
2018-05-18T02:47:21.760Z,1009.18
2018-05-18T02:48:21.698Z,1009.17
2018-05-18T02:49:21.674Z,1009.17
2018-05-18T02:50:21.603Z,1009.19
2018-05-18T02:51:21.549Z,1009.17
2018-05-18T02:52:21.531Z,1009.18
2018-05-18T02:53:21.450Z,1009.18
2018-05-18T02:54:21.430Z,1009.18
2018-05-18T02:55:21.352Z,1009.18
2018-05-18T02:56:21.301Z,1009.18
2018-05-18T02:57:21.252Z,1009.16
2018-05-18T02:58:21.203Z,1009.20
2018-05-18T02:59:21.176Z,1009.17
2018-05-18T03:00:21.109Z,1009.13
2018-05-18T03:01:21.060Z,1009.14
2018-05-18T03:02:21.006Z,1009.18
2018-05-18T03:03:21.017Z,1009.19
2018-05-18T03:04:20.934Z,1009.16
2018-05-18T03:05:20.860Z,1009.24
2018-05-18T03:06:20.809Z,1009.20
2018-05-18T03:07:20.762Z,1009.24
2018-05-18T03:08:20.713Z,1009.20
2018-05-18T03:09:20.683Z,1009.20
2018-05-18T03:10:20.608Z,1009.22
2018-05-18T03:11:20.558Z,1009.21
2018-05-18T03:12:20.524Z,1009.19
2018-05-18T03:13:20.461Z,1009.22
2018-05-18T03:14:20.434Z,1009.21
2018-05-18T03:15:20.363Z,1009.22
2018-05-18T03:16:20.313Z,1009.23
2018-05-18T03:17:20.262Z,1009.25
2018-05-18T03:18:20.212Z,1009.20
2018-05-18T03:19:20.187Z,1009.21
2018-05-18T03:20:20.113Z,1009.20
2018-05-18T03:21:20.066Z,1009.20
2018-05-18T03:22:20.014Z,1009.23
2018-05-18T03:23:19.962Z,1009.21
2018-05-18T03:24:19.939Z,1009.24
2018-05-18T03:25:19.864Z,1009.22
2018-05-18T03:26:19.812Z,1009.22
2018-05-18T03:27:19.769Z,1009.21
2018-05-18T03:28:19.714Z,1009.23
2018-05-18T03:29:19.690Z,1009.25
2018-05-18T03:30:19.614Z,1009.27
2018-05-18T03:31:19.563Z,1009.26
2018-05-18T03:32:19.517Z,1009.25
2018-05-18T03:33:19.467Z,1009.28
2018-05-18T03:34:19.442Z,1009.26
2018-05-18T03:35:19.368Z,1009.29
2018-05-18T03:36:19.319Z,1009.25
2018-05-18T03:37:19.269Z,1009.26
2018-05-18T03:38:19.217Z,1009.26
2018-05-18T03:39:19.194Z,1009.30
2018-05-18T03:40:19.123Z,1009.26
2018-05-18T03:41:19.072Z,1009.25
2018-05-18T03:42:19.019Z,1009.23
2018-05-18T03:43:18.972Z,1009.22
2018-05-18T03:44:18.947Z,1009.24
2018-05-18T03:45:18.874Z,1009.25
2018-05-18T03:46:18.821Z,1009.24
2018-05-18T03:47:18.773Z,1009.21
2018-05-18T03:48:18.723Z,1009.24
2018-05-18T03:49:18.694Z,1009.24
2018-05-18T03:50:18.644Z,1009.25
2018-05-18T03:51:18.577Z,1009.30
2018-05-18T03:52:18.530Z,1009.29
2018-05-18T03:53:18.495Z,1009.33
2018-05-18T03:54:18.451Z,1009.31
2018-05-18T03:55:18.380Z,1009.33
2018-05-18T03:56:18.327Z,1009.35
2018-05-18T03:57:18.279Z,1009.33
2018-05-18T03:58:18.229Z,1009.37
2018-05-18T03:59:18.208Z,1009.37
2018-05-18T04:00:18.127Z,1009.38
2018-05-18T04:01:18.081Z,1009.40
2018-05-18T04:02:18.028Z,1009.40
2018-05-18T04:03:17.983Z,1009.42
2018-05-18T04:04:17.932Z,1009.42
2018-05-18T04:05:17.904Z,1009.42
2018-05-18T04:06:17.838Z,1009.43
2018-05-18T04:07:17.784Z,1009.42
2018-05-18T04:08:17.744Z,1009.43
2018-05-18T04:09:17.687Z,1009.45
2018-05-18T04:10:17.755Z,1009.45
2018-05-18T04:11:17.586Z,1009.48
2018-05-18T04:12:17.536Z,1009.47
2018-05-18T04:13:17.489Z,1009.47
2018-05-18T04:14:17.438Z,1009.46
2018-05-18T04:15:17.413Z,1009.48
2018-05-18T04:16:17.342Z,1009.48
2018-05-18T04:17:17.299Z,1009.46
2018-05-18T04:18:17.238Z,1009.46
2018-05-18T04:19:17.193Z,1009.44
2018-05-18T04:20:17.165Z,1009.46
2018-05-18T04:21:17.094Z,1009.50
2018-05-18T04:22:17.044Z,1009.52
2018-05-18T04:23:16.991Z,1009.47
2018-05-18T04:24:16.948Z,1009.51
2018-05-18T04:25:16.918Z,1009.50
2018-05-18T04:26:16.846Z,1009.53
2018-05-18T04:27:16.793Z,1009.50
2018-05-18T04:28:16.751Z,1009.50
2018-05-18T04:29:16.695Z,1009.51
2018-05-18T04:30:16.695Z,1009.51
2018-05-18T04:31:16.594Z,1009.50
2018-05-18T04:32:16.545Z,1009.55
2018-05-18T04:33:16.498Z,1009.58
2018-05-18T04:34:16.444Z,1009.52
2018-05-18T04:35:16.426Z,1009.54
2018-05-18T04:36:16.350Z,1009.53
2018-05-18T04:37:16.308Z,1009.52
2018-05-18T04:38:16.249Z,1009.52
2018-05-18T04:39:16.200Z,1009.54
2018-05-18T04:40:16.173Z,1009.54
2018-05-18T04:41:16.102Z,1009.56
2018-05-18T04:42:16.053Z,1009.59
2018-05-18T04:43:16.093Z,1009.58
2018-05-18T04:44:15.956Z,1009.58
2018-05-18T04:45:15.930Z,1009.60
2018-05-18T04:46:15.855Z,1009.57
2018-05-18T04:47:15.801Z,1009.59
2018-05-18T04:48:15.757Z,1009.60
2018-05-18T04:49:15.709Z,1009.59
2018-05-18T04:50:15.680Z,1009.60
2018-05-18T04:51:15.603Z,1009.62
2018-05-18T04:52:15.563Z,1009.62
2018-05-18T04:53:15.504Z,1009.62
2018-05-18T04:54:15.456Z,1009.58
2018-05-18T04:55:15.428Z,1009.61
2018-05-18T04:56:15.354Z,1009.63
2018-05-18T04:57:15.309Z,1009.64
2018-05-18T04:58:15.255Z,1009.67
2018-05-18T04:59:15.209Z,1009.71
2018-05-18T05:00:15.185Z,1009.71
2018-05-18T05:01:15.111Z,1009.70
2018-05-18T05:02:15.064Z,1009.71
2018-05-18T05:03:15.014Z,1009.70
2018-05-18T05:04:14.960Z,1009.70
2018-05-18T05:05:14.935Z,1009.67
2018-05-18T05:06:14.862Z,1009.66
2018-05-18T05:07:14.815Z,1009.66
2018-05-18T05:08:14.769Z,1009.66
2018-05-18T05:09:14.714Z,1009.69
2018-05-18T05:10:14.689Z,1009.71
2018-05-18T05:11:14.615Z,1009.68
2018-05-18T05:12:14.565Z,1009.67
2018-05-18T05:13:14.513Z,1009.70
2018-05-18T05:14:14.472Z,1009.69
2018-05-18T05:15:14.438Z,1009.75
2018-05-18T05:16:14.366Z,1009.77
2018-05-18T05:17:14.321Z,1009.77
2018-05-18T05:18:14.267Z,1009.82
2018-05-18T05:19:14.220Z,1009.80
2018-05-18T05:20:14.192Z,1009.79
2018-05-18T05:21:14.124Z,1009.82
2018-05-18T05:22:14.073Z,1009.78
2018-05-18T05:23:14.027Z,1009.80
2018-05-18T05:24:13.974Z,1009.80
2018-05-18T05:25:13.949Z,1009.80
2018-05-18T05:26:13.876Z,1009.76
2018-05-18T05:27:13.828Z,1009.80
2018-05-18T05:28:13.779Z,1009.78
2018-05-18T05:29:13.726Z,1009.84
2018-05-18T05:30:13.703Z,1009.83
2018-05-18T05:31:13.652Z,1009.90
2018-05-18T05:32:13.581Z,1009.88
2018-05-18T05:33:13.532Z,1009.91
2018-05-18T05:34:13.474Z,1009.94
2018-05-18T05:35:13.451Z,1009.94
2018-05-18T05:36:13.380Z,1009.92
2018-05-18T05:37:13.330Z,1009.96
2018-05-18T05:38:13.286Z,1009.95
2018-05-18T05:39:13.231Z,1009.94
2018-05-18T05:40:13.204Z,1009.94
2018-05-18T05:41:13.135Z,1009.95
2018-05-18T05:42:13.082Z,1009.97
2018-05-18T05:43:13.050Z,1009.95
2018-05-18T05:44:12.989Z,1009.95
2018-05-18T05:45:12.964Z,1009.99
2018-05-18T05:46:12.893Z,1010.02
2018-05-18T05:47:12.843Z,1009.99
2018-05-18T05:48:12.791Z,1009.98
2018-05-18T05:49:12.741Z,1009.97
2018-05-18T05:50:12.712Z,1009.98
2018-05-18T05:51:12.639Z,1009.98
2018-05-18T05:52:12.592Z,1009.98
2018-05-18T05:53:12.542Z,1010.01
2018-05-18T05:54:12.515Z,1010.05
2018-05-18T05:55:12.443Z,1010.00
2018-05-18T05:56:12.418Z,1010.02
2018-05-18T05:57:12.349Z,1010.00
2018-05-18T05:58:12.297Z,1010.03
2018-05-18T05:59:12.244Z,1010.04
2018-05-18T06:00:12.203Z,1010.03
2018-05-18T06:01:12.169Z,1010.06
2018-05-18T06:02:12.096Z,1010.06
2018-05-18T06:03:12.049Z,1010.04
2018-05-18T06:04:12.003Z,1010.04
2018-05-18T06:05:11.947Z,1010.06
2018-05-18T06:06:11.920Z,1010.09
2018-05-18T06:07:11.860Z,1010.07
2018-05-18T06:08:11.804Z,1010.03
2018-05-18T06:09:11.751Z,1010.05
2018-05-18T06:10:11.703Z,1010.04
2018-05-18T06:11:11.679Z,1010.05
2018-05-18T06:12:11.627Z,1010.04
2018-05-18T06:13:11.572Z,1010.07
2018-05-18T06:14:11.505Z,1010.09
2018-05-18T06:15:11.458Z,1010.08
2018-05-18T06:16:11.435Z,1010.07
2018-05-18T06:17:11.360Z,1010.08
2018-05-18T06:18:11.312Z,1010.09
2018-05-18T06:19:11.287Z,1010.09
2018-05-18T06:20:11.213Z,1010.08
2018-05-18T06:21:11.188Z,1010.10
2018-05-18T06:22:11.113Z,1010.13
2018-05-18T06:23:11.066Z,1010.09
2018-05-18T06:24:11.021Z,1010.13
2018-05-18T06:25:10.966Z,1010.15
2018-05-18T06:26:10.940Z,1010.13
2018-05-18T06:27:10.870Z,1010.14
2018-05-18T06:28:10.841Z,1010.12
2018-05-18T06:29:10.798Z,1010.11
2018-05-18T06:30:10.728Z,1010.14
2018-05-18T06:31:10.698Z,1010.15
2018-05-18T06:32:10.626Z,1010.16
2018-05-18T06:33:10.574Z,1010.18
2018-05-18T06:34:10.525Z,1010.22
2018-05-18T06:35:10.580Z,1010.20
2018-05-18T06:36:10.455Z,1010.23
2018-05-18T06:37:10.380Z,1010.23
2018-05-18T06:38:10.332Z,1010.27
2018-05-18T06:39:10.283Z,1010.25
2018-05-18T06:40:10.235Z,1010.27
2018-05-18T06:41:10.226Z,1010.32
2018-05-18T06:42:10.136Z,1010.29
2018-05-18T06:43:10.091Z,1010.32
2018-05-18T06:44:10.034Z,1010.33
2018-05-18T06:45:09.989Z,1010.31
2018-05-18T06:46:09.965Z,1010.30
2018-05-18T06:47:09.887Z,1010.30
2018-05-18T06:48:09.841Z,1010.30
2018-05-18T06:49:09.797Z,1010.34
2018-05-18T06:50:09.741Z,1010.34
2018-05-18T06:51:09.718Z,1010.33
2018-05-18T06:52:09.645Z,1010.31
2018-05-18T06:53:09.595Z,1010.35
2018-05-18T06:54:09.549Z,1010.35
2018-05-18T06:55:09.519Z,1010.36
2018-05-18T06:56:09.617Z,1010.36
2018-05-18T06:57:09.427Z,1010.39
2018-05-18T06:58:09.393Z,1010.37
2018-05-18T06:59:09.298Z,1010.35
2018-05-18T07:00:09.252Z,1010.41
2018-05-18T07:01:09.246Z,1010.43
2018-05-18T07:02:09.159Z,1010.40
2018-05-18T07:03:09.110Z,1010.41
2018-05-18T07:04:09.109Z,1010.43
2018-05-18T07:05:09.016Z,1010.44
2018-05-18T07:06:08.984Z,1010.42
2018-05-18T07:07:08.910Z,1010.45
2018-05-18T07:08:08.864Z,1010.46
2018-05-18T07:09:08.814Z,1010.44
2018-05-18T07:10:08.761Z,1010.42
2018-05-18T07:11:08.744Z,1010.43
2018-05-18T07:12:08.681Z,1010.40
2018-05-18T07:13:08.618Z,1010.40
2018-05-18T07:14:08.571Z,1010.37
2018-05-18T07:15:08.523Z,1010.42
2018-05-18T07:16:08.496Z,1010.39
2018-05-18T07:17:08.425Z,1010.41
2018-05-18T07:18:08.377Z,1010.44
2018-05-18T07:19:08.331Z,1010.40
2018-05-18T07:20:08.277Z,1010.39
2018-05-18T07:21:08.251Z,1010.43
2018-05-18T07:22:08.188Z,1010.43
2018-05-18T07:23:08.166Z,1010.38
2018-05-18T07:24:08.090Z,1010.48
2018-05-18T07:25:08.036Z,1010.46
2018-05-18T07:26:08.008Z,1010.45
2018-05-18T07:27:07.971Z,1010.46
2018-05-18T07:28:07.923Z,1010.48
2018-05-18T07:29:07.882Z,1010.51
2018-05-18T07:30:07.897Z,1010.54
2018-05-18T07:31:07.875Z,1010.55
2018-05-18T07:32:07.695Z,1010.51
2018-05-18T07:33:07.654Z,1010.50
2018-05-18T07:34:07.604Z,1010.51
2018-05-18T07:35:07.550Z,1010.50
2018-05-18T07:36:07.527Z,1010.49
2018-05-18T07:37:07.467Z,1010.45
2018-05-18T07:38:07.402Z,1010.49
2018-05-18T07:39:07.359Z,1010.45
2018-05-18T07:40:07.310Z,1010.49
2018-05-18T07:41:07.286Z,1010.46
2018-05-18T07:42:07.215Z,1010.45
2018-05-18T07:43:07.164Z,1010.47
2018-05-18T07:44:07.119Z,1010.45
2018-05-18T07:45:07.067Z,1010.48
2018-05-18T07:46:07.074Z,1010.47
2018-05-18T07:47:06.972Z,1010.45
2018-05-18T07:48:06.924Z,1010.45
2018-05-18T07:49:06.878Z,1010.42
2018-05-18T07:50:06.836Z,1010.45
2018-05-18T07:51:06.800Z,1010.46
2018-05-18T07:52:06.735Z,1010.41
2018-05-18T07:53:06.688Z,1010.41
2018-05-18T07:54:06.635Z,1010.43
2018-05-18T07:55:06.589Z,1010.41
2018-05-18T07:56:06.564Z,1010.44
2018-05-18T07:57:06.492Z,1010.45
2018-05-18T07:58:06.444Z,1010.45
2018-05-18T07:59:06.397Z,1010.49
2018-05-18T08:00:06.345Z,1010.45
2018-05-18T08:01:06.323Z,1010.49
2018-05-18T08:02:06.250Z,1010.49
2018-05-18T08:03:06.212Z,1010.46
2018-05-18T08:04:06.197Z,1010.45
2018-05-18T08:05:06.110Z,1010.49
2018-05-18T08:06:06.082Z,1010.45
2018-05-18T08:07:06.012Z,1010.49
2018-05-18T08:08:05.970Z,1010.45
2018-05-18T08:09:05.918Z,1010.44
2018-05-18T08:10:05.891Z,1010.48
2018-05-18T08:11:05.865Z,1010.50
2018-05-18T08:12:05.772Z,1010.44
2018-05-18T08:13:05.723Z,1010.47
2018-05-18T08:14:05.677Z,1010.42
2018-05-18T08:15:05.660Z,1010.45
2018-05-18T08:16:05.641Z,1010.47
2018-05-18T08:17:05.532Z,1010.46
2018-05-18T08:18:05.487Z,1010.48
2018-05-18T08:19:05.442Z,1010.50
2018-05-18T08:20:05.388Z,1010.55
2018-05-18T08:21:05.362Z,1010.47
2018-05-18T08:22:05.303Z,1010.47
2018-05-18T08:23:05.302Z,1010.48
2018-05-18T08:24:05.197Z,1010.48
2018-05-18T08:25:05.147Z,1010.48
2018-05-18T08:26:05.123Z,1010.48
2018-05-18T08:27:05.092Z,1010.49
2018-05-18T08:28:05.006Z,1010.49
2018-05-18T08:29:04.959Z,1010.50
2018-05-18T08:30:04.907Z,1010.47
2018-05-18T08:31:04.903Z,1010.47
2018-05-18T08:32:04.816Z,1010.46
2018-05-18T08:33:04.763Z,1010.48
2018-05-18T08:34:04.719Z,1010.53
2018-05-18T08:35:04.681Z,1010.54
2018-05-18T08:36:04.628Z,1010.53
2018-05-18T08:37:04.602Z,1010.56
2018-05-18T08:38:04.529Z,1010.54
2018-05-18T08:39:04.482Z,1010.56
2018-05-18T08:40:04.430Z,1010.54
2018-05-18T08:41:04.390Z,1010.60
2018-05-18T08:42:04.366Z,1010.58
2018-05-18T08:43:04.289Z,1010.58
2018-05-18T08:44:04.243Z,1010.60
2018-05-18T08:45:04.198Z,1010.58
2018-05-18T08:46:04.148Z,1010.61
2018-05-18T08:47:04.128Z,1010.61
2018-05-18T08:48:04.053Z,1010.63
2018-05-18T08:49:04.006Z,1010.59
2018-05-18T08:50:04.047Z,1010.59
2018-05-18T08:51:03.913Z,1010.60
2018-05-18T08:52:03.887Z,1010.63
2018-05-18T08:53:03.815Z,1010.64
2018-05-18T08:54:03.769Z,1010.61
2018-05-18T08:55:03.721Z,1010.63
2018-05-18T08:56:03.674Z,1010.60
2018-05-18T08:57:03.648Z,1010.61
2018-05-18T08:58:03.579Z,1010.54
2018-05-18T08:59:03.534Z,1010.57
2018-05-18T09:00:03.494Z,1010.51
2018-05-18T09:01:03.436Z,1010.50
2018-05-18T09:02:03.410Z,1010.52
2018-05-18T09:03:03.341Z,1010.52
2018-05-18T09:04:03.295Z,1010.55
2018-05-18T09:05:03.249Z,1010.53
2018-05-18T09:06:03.199Z,1010.57
2018-05-18T09:07:03.176Z,1010.56
2018-05-18T09:08:03.108Z,1010.58
2018-05-18T09:09:03.056Z,1010.59
2018-05-18T09:10:03.010Z,1010.53
2018-05-18T09:11:02.962Z,1010.56
2018-05-18T09:12:02.941Z,1010.61
2018-05-18T09:13:02.868Z,1010.58
2018-05-18T09:14:02.822Z,1010.60
2018-05-18T09:15:02.773Z,1010.59
2018-05-18T09:16:02.747Z,1010.58
2018-05-18T09:17:02.704Z,1010.57
2018-05-18T09:18:02.630Z,1010.57
2018-05-18T09:19:02.585Z,1010.59
2018-05-18T09:20:02.547Z,1010.62
2018-05-18T09:21:02.500Z,1010.62
2018-05-18T09:22:02.468Z,1010.65
2018-05-18T09:23:02.403Z,1010.63
2018-05-18T09:24:02.353Z,1010.56
2018-05-18T09:25:02.310Z,1010.52
2018-05-18T09:26:02.258Z,1010.52
2018-05-18T09:27:02.242Z,1010.54
2018-05-18T09:28:02.165Z,1010.56
2018-05-18T09:29:02.117Z,1010.56
2018-05-18T09:30:02.068Z,1010.57
2018-05-18T09:31:02.019Z,1010.59
2018-05-18T09:32:01.999Z,1010.55
2018-05-18T09:33:01.933Z,1010.58
2018-05-18T09:34:01.994Z,1010.56
2018-05-18T09:35:01.838Z,1010.58
2018-05-18T09:36:01.788Z,1010.57
2018-05-18T09:37:01.768Z,1010.60
2018-05-18T09:38:01.694Z,1010.56
2018-05-18T09:39:01.646Z,1010.59
2018-05-18T09:40:01.602Z,1010.54
2018-05-18T09:41:01.553Z,1010.54
2018-05-18T09:42:01.531Z,1010.52
2018-05-18T09:43:01.459Z,1010.56
2018-05-18T09:44:01.415Z,1010.51
2018-05-18T09:45:01.364Z,1010.57
2018-05-18T09:46:01.348Z,1010.60
2018-05-18T09:47:01.299Z,1010.55
2018-05-18T09:48:01.224Z,1010.56
2018-05-18T09:49:01.175Z,1010.60
2018-05-18T09:50:01.134Z,1010.60
2018-05-18T09:51:01.086Z,1010.64
2018-05-18T09:52:01.058Z,1010.63
2018-05-18T09:53:00.988Z,1010.59
2018-05-18T09:54:00.975Z,1010.62
2018-05-18T09:55:00.934Z,1010.65
2018-05-18T09:56:00.849Z,1010.67
2018-05-18T09:57:00.823Z,1010.67
2018-05-18T09:58:00.756Z,1010.68
2018-05-18T09:59:00.708Z,1010.67
2018-05-18T10:00:00.660Z,1010.65
2018-05-18T10:01:00.615Z,1010.62
2018-05-18T10:02:00.588Z,1010.62
2018-05-18T10:03:00.531Z,1010.66
2018-05-18T10:04:00.475Z,1010.66
2018-05-18T10:05:00.423Z,1010.68
2018-05-18T10:06:00.375Z,1010.69
2018-05-18T10:07:00.366Z,1010.71
2018-05-18T10:08:00.289Z,1010.70
2018-05-18T10:09:00.250Z,1010.69
2018-05-18T10:10:00.195Z,1010.66
2018-05-18T10:11:00.144Z,1010.74
2018-05-18T10:12:00.122Z,1010.72
2018-05-18T10:13:00.053Z,1010.68
2018-05-18T10:14:00.004Z,1010.68
2018-05-18T10:14:59.963Z,1010.67
2018-05-18T10:15:59.912Z,1010.72
2018-05-18T10:16:59.889Z,1010.70
2018-05-18T10:17:59.821Z,1010.72
2018-05-18T10:18:59.771Z,1010.71
2018-05-18T10:19:59.727Z,1010.70
2018-05-18T10:20:59.694Z,1010.70
2018-05-18T10:21:59.655Z,1010.66
2018-05-18T10:22:59.588Z,1010.73
2018-05-18T10:23:59.541Z,1010.73
2018-05-18T10:24:59.493Z,1010.70
2018-05-18T10:25:59.443Z,1010.67
2018-05-18T10:26:59.426Z,1010.67
2018-05-18T10:27:59.354Z,1010.66
2018-05-18T10:28:59.307Z,1010.78
2018-05-18T10:29:59.260Z,1010.73
2018-05-18T10:30:59.221Z,1010.74
2018-05-18T10:31:59.190Z,1010.73
2018-05-18T10:32:59.123Z,1010.70
2018-05-18T10:33:59.074Z,1010.73
2018-05-18T10:34:59.032Z,1010.71
2018-05-18T10:35:58.987Z,1010.75
2018-05-18T10:36:58.960Z,1010.69
2018-05-18T10:37:58.890Z,1010.69
2018-05-18T10:38:58.846Z,1010.72
2018-05-18T10:39:58.801Z,1010.70
2018-05-18T10:40:58.751Z,1010.69
2018-05-18T10:41:58.731Z,1010.67
2018-05-18T10:42:58.663Z,1010.65
2018-05-18T10:43:58.616Z,1010.72
2018-05-18T10:44:58.568Z,1010.71
2018-05-18T10:45:58.522Z,1010.73
2018-05-18T10:46:58.502Z,1010.72
2018-05-18T10:47:58.427Z,1010.68
2018-05-18T10:48:58.380Z,1010.69
2018-05-18T10:49:58.334Z,1010.68
2018-05-18T10:50:58.287Z,1010.76
2018-05-18T10:51:58.264Z,1010.70
2018-05-18T10:52:58.206Z,1010.71
2018-05-18T10:53:58.149Z,1010.61
2018-05-18T10:54:58.104Z,1010.69
2018-05-18T10:55:58.058Z,1010.68
2018-05-18T10:56:58.033Z,1010.67
2018-05-18T10:57:57.965Z,1010.63
2018-05-18T10:58:57.921Z,1010.62
2018-05-18T10:59:57.874Z,1010.59
2018-05-18T11:00:57.826Z,1010.61
2018-05-18T11:01:57.804Z,1010.64
2018-05-18T11:02:57.731Z,1010.65
2018-05-18T11:03:57.692Z,1010.55
2018-05-18T11:04:57.636Z,1010.54
2018-05-18T11:05:57.592Z,1010.56
2018-05-18T11:06:57.616Z,1010.58
2018-05-18T11:07:57.496Z,1010.59
2018-05-18T11:08:57.459Z,1010.59
2018-05-18T11:09:57.409Z,1010.59
2018-05-18T11:10:57.356Z,1010.58
2018-05-18T11:11:57.337Z,1010.50
2018-05-18T11:12:57.265Z,1010.47
2018-05-18T11:13:57.274Z,1010.31
2018-05-18T11:14:57.172Z,1010.51
2018-05-18T11:15:57.129Z,1010.50
2018-05-18T11:16:57.105Z,1010.43
2018-05-18T11:17:57.037Z,1010.47
2018-05-18T11:18:57.033Z,1010.49
2018-05-18T11:19:56.955Z,1010.55
2018-05-18T11:20:56.896Z,1010.53
2018-05-18T11:21:56.873Z,1010.55
2018-05-18T11:22:56.801Z,1010.55
2018-05-18T11:23:56.756Z,1010.50
2018-05-18T11:24:56.707Z,1010.48
2018-05-18T11:25:56.661Z,1010.49
2018-05-18T11:26:56.642Z,1010.50
2018-05-18T11:27:56.565Z,1010.52
2018-05-18T11:28:56.525Z,1010.57
2018-05-18T11:29:56.476Z,1010.54
2018-05-18T11:30:56.429Z,1010.50
2018-05-18T11:31:56.382Z,1010.48
2018-05-18T11:32:56.360Z,1010.45
2018-05-18T11:33:56.291Z,1010.44
2018-05-18T11:34:56.245Z,1010.38
2018-05-18T11:35:56.196Z,1010.40
2018-05-18T11:36:56.152Z,1010.39
2018-05-18T11:37:56.132Z,1010.42
2018-05-18T11:38:56.061Z,1010.47
2018-05-18T11:39:56.012Z,1010.46
2018-05-18T11:40:55.970Z,1010.47
2018-05-18T11:41:55.923Z,1010.42
2018-05-18T11:42:55.896Z,1010.41
2018-05-18T11:43:55.827Z,1010.39
2018-05-18T11:44:55.786Z,1010.30
2018-05-18T11:45:55.734Z,1010.31
2018-05-18T11:46:55.690Z,1010.31
2018-05-18T11:47:55.706Z,1010.39
2018-05-18T11:48:55.608Z,1010.31
2018-05-18T11:49:55.549Z,1010.34
2018-05-18T11:50:55.504Z,1010.33
2018-05-18T11:51:55.476Z,1010.27
2018-05-18T11:52:55.440Z,1010.30
2018-05-18T11:53:55.370Z,1010.25
2018-05-18T11:54:55.325Z,1010.29
2018-05-18T11:55:55.275Z,1010.24
2018-05-18T11:56:55.233Z,1010.26
2018-05-18T11:57:55.209Z,1010.28
2018-05-18T11:58:55.138Z,1010.27
2018-05-18T11:59:55.094Z,1010.25
2018-05-18T12:00:55.046Z,1010.28
2018-05-18T12:01:55.000Z,1010.22
2018-05-18T12:02:54.982Z,1010.25
2018-05-18T12:03:54.907Z,1010.25
2018-05-18T12:04:54.873Z,1010.25